createdAt,value
2023-03-04T00:00:13.221Z,3.33
2023-03-04T00:02:40.137Z,2.65
2023-03-04T00:05:07.795Z,2.92
2023-03-04T00:07:34.764Z,3.17
2023-03-04T00:10:01.958Z,3.55
2023-03-04T00:12:29.068Z,3.63
2023-03-04T00:14:56.137Z,3.13
2023-03-04T00:17:23.168Z,3.25
2023-03-04T00:19:50.241Z,3.17
2023-03-04T00:22:17.451Z,3.42
2023-03-04T00:24:44.477Z,3.83
2023-03-04T00:27:12.613Z,3.00
2023-03-04T00:29:39.804Z,3.22
2023-03-04T00:32:06.908Z,3.58
2023-03-04T00:34:34.115Z,3.35
2023-03-04T00:37:04.226Z,3.45
2023-03-04T00:39:31.310Z,2.97
2023-03-04T00:41:59.748Z,3.45
2023-03-04T00:44:26.778Z,2.55
2023-03-04T00:46:54.074Z,2.90
2023-03-04T00:49:22.372Z,3.35
2023-03-04T00:51:49.512Z,2.80
2023-03-04T00:54:16.759Z,2.88
2023-03-04T00:56:44.224Z,2.75
2023-03-04T00:59:11.679Z,3.35
2023-03-04T01:01:38.692Z,4.13
2023-03-04T01:04:05.939Z,3.08
2023-03-04T01:06:33.572Z,3.08
2023-03-04T01:09:00.598Z,3.00
2023-03-04T01:11:27.825Z,2.88
2023-03-04T01:13:54.844Z,2.42
2023-03-04T01:16:21.811Z,2.40
2023-03-04T01:18:48.975Z,2.88
2023-03-04T01:21:15.804Z,2.83
2023-03-04T01:23:42.986Z,2.65
2023-03-04T01:26:10.631Z,3.60
2023-03-04T01:28:37.740Z,2.95
2023-03-04T01:31:07.370Z,3.05
2023-03-04T01:33:34.740Z,3.42
2023-03-04T01:36:01.778Z,2.97
2023-03-04T01:38:28.781Z,4.32
2023-03-04T01:40:55.898Z,3.13
2023-03-04T01:43:28.197Z,3.55
2023-03-04T01:45:56.623Z,3.00
2023-03-04T01:48:31.430Z,2.80
2023-03-04T01:50:59.937Z,2.63
2023-03-04T01:53:28.377Z,2.72
2023-03-04T01:55:58.613Z,2.90
2023-03-04T01:58:30.397Z,3.88
2023-03-04T02:00:58.509Z,2.80
2023-03-04T02:03:26.052Z,2.55
2023-03-04T02:05:55.372Z,2.55
2023-03-04T02:08:24.674Z,2.60
2023-03-04T02:10:53.830Z,2.90
2023-03-04T02:13:21.580Z,2.50
2023-03-04T02:15:48.634Z,3.00
2023-03-04T02:18:24.889Z,3.58
2023-03-04T02:21:23.881Z,3.15
2023-03-04T02:24:29.334Z,2.75
2023-03-04T02:26:56.416Z,2.55
2023-03-04T02:29:23.520Z,3.05
2023-03-04T02:31:53.965Z,3.00
2023-03-04T02:34:31.480Z,2.50
2023-03-04T02:36:59.450Z,3.10
2023-03-04T02:39:33.445Z,2.30
2023-03-04T02:42:02.125Z,2.83
2023-03-04T02:44:34.838Z,3.20
2023-03-04T02:47:03.401Z,2.30
2023-03-04T02:49:32.029Z,2.75
2023-03-04T02:52:04.173Z,2.92
2023-03-04T02:54:32.771Z,2.47
2023-03-04T02:57:04.315Z,2.35
2023-03-04T02:59:35.204Z,2.63
2023-03-04T03:02:02.315Z,2.85
2023-03-04T03:04:29.950Z,2.30
2023-03-04T03:06:58.841Z,2.92
2023-03-04T03:09:28.066Z,2.50
2023-03-04T03:11:56.594Z,2.63
2023-03-04T03:14:23.464Z,2.53
2023-03-04T03:16:50.831Z,2.53
2023-03-04T03:19:17.852Z,2.78
2023-03-04T03:21:45.406Z,2.58
2023-03-04T03:24:12.649Z,2.80
2023-03-04T03:26:40.425Z,3.63
2023-03-04T03:29:08.291Z,2.30
2023-03-04T03:31:35.261Z,2.13
2023-03-04T03:34:02.397Z,2.17
2023-03-04T03:36:29.689Z,2.70
2023-03-04T03:38:56.746Z,3.28
2023-03-04T03:41:24.062Z,3.13
2023-03-04T03:43:51.077Z,2.80
2023-03-04T03:46:18.341Z,2.20
2023-03-04T03:48:45.634Z,2.63
2023-03-04T03:51:12.702Z,2.40
2023-03-04T03:53:39.725Z,2.30
2023-03-04T03:56:07.422Z,2.92
2023-03-04T03:58:34.382Z,2.25
2023-03-04T04:01:01.478Z,1.85
2023-03-04T04:03:29.798Z,2.92
2023-03-04T04:05:56.887Z,2.47
2023-03-04T04:08:24.063Z,2.33
2023-03-04T04:10:51.383Z,2.80
2023-03-04T04:13:18.915Z,2.80
2023-03-04T04:15:46.188Z,2.70
2023-03-04T04:18:13.562Z,2.80
2023-03-04T04:20:40.813Z,2.33
2023-03-04T04:23:08.147Z,2.42
2023-03-04T04:25:35.431Z,2.65
2023-03-04T04:28:02.444Z,2.42
2023-03-04T04:30:29.499Z,4.07
2023-03-04T04:32:56.379Z,3.38
2023-03-04T04:35:23.711Z,2.70
2023-03-04T04:37:50.914Z,3.03
2023-03-04T04:40:18.119Z,2.75
2023-03-04T04:42:45.117Z,2.55
2023-03-04T04:45:12.071Z,2.65
2023-03-04T04:47:39.574Z,2.53
2023-03-04T04:50:07.018Z,2.05
2023-03-04T04:52:34.023Z,2.88
2023-03-04T04:55:01.615Z,2.38
2023-03-04T04:57:28.641Z,2.40
2023-03-04T04:59:55.780Z,2.97
2023-03-04T05:02:22.973Z,2.58
2023-03-04T05:04:50.030Z,3.47
2023-03-04T05:07:17.173Z,2.60
2023-03-04T05:09:44.783Z,3.15
2023-03-04T05:12:11.955Z,2.92
2023-03-04T05:14:38.922Z,3.60
2023-03-04T05:17:06.756Z,2.50
2023-03-04T05:19:33.803Z,2.83
2023-03-04T05:22:00.951Z,2.83
2023-03-04T05:24:28.078Z,2.88
2023-03-04T05:26:55.316Z,1.92
2023-03-04T05:29:22.306Z,1.77
2023-03-04T05:31:49.255Z,2.30
2023-03-04T05:34:16.290Z,2.35
2023-03-04T05:36:43.286Z,2.75
2023-03-04T05:39:10.512Z,2.45
2023-03-04T05:41:37.454Z,2.00
2023-03-04T05:44:04.935Z,2.53
2023-03-04T05:46:33.671Z,2.67
2023-03-04T05:49:01.130Z,2.47
2023-03-04T05:51:27.950Z,2.35
2023-03-04T05:53:55.232Z,2.38
2023-03-04T05:56:22.314Z,2.33
2023-03-04T05:58:49.469Z,2.35
2023-03-04T06:01:18.806Z,1.95
2023-03-04T06:03:48.723Z,2.45
2023-03-04T06:06:16.004Z,3.55
2023-03-04T06:08:43.105Z,1.90
2023-03-04T06:11:10.268Z,2.38
2023-03-04T06:13:38.467Z,2.13
2023-03-04T06:16:06.526Z,2.05
2023-03-04T06:18:33.760Z,2.20
2023-03-04T06:21:03.476Z,2.58
2023-03-04T06:23:31.386Z,2.42
2023-03-04T06:26:03.923Z,2.53
2023-03-04T06:28:30.999Z,2.20
2023-03-04T06:30:58.779Z,2.72
2023-03-04T06:33:26.563Z,2.72
2023-03-04T06:35:57.506Z,2.63
2023-03-04T06:38:26.063Z,2.58
2023-03-04T06:40:56.731Z,2.30
2023-03-04T06:43:24.347Z,2.50
2023-03-04T06:45:51.628Z,1.90
2023-03-04T06:48:18.574Z,2.13
2023-03-04T06:50:45.582Z,1.90
2023-03-04T06:53:12.545Z,2.10
2023-03-04T06:55:39.445Z,1.50
2023-03-04T06:58:06.492Z,2.15
2023-03-04T07:00:33.529Z,1.80
2023-03-04T07:03:00.749Z,1.40
2023-03-04T07:05:27.842Z,2.55
2023-03-04T07:07:55.151Z,2.40
2023-03-04T07:10:22.394Z,2.30
2023-03-04T07:12:49.429Z,2.30
2023-03-04T07:15:16.582Z,2.47
2023-03-04T07:17:43.666Z,1.98
2023-03-04T07:20:11.222Z,2.75
2023-03-04T07:22:38.349Z,2.30
2023-03-04T07:25:06.450Z,2.10
2023-03-04T07:27:33.743Z,2.40
2023-03-04T07:30:00.846Z,2.83
2023-03-04T07:32:28.334Z,1.90
2023-03-04T07:34:55.346Z,1.85
2023-03-04T07:37:22.638Z,1.83
2023-03-04T07:39:49.993Z,1.77
2023-03-04T07:42:17.298Z,1.95
2023-03-04T07:44:52.299Z,1.90
2023-03-04T07:47:20.024Z,2.15
2023-03-04T07:49:47.283Z,2.38
2023-03-04T07:52:14.738Z,2.42
2023-03-04T07:54:41.747Z,1.85
2023-03-04T07:57:08.799Z,1.50
2023-03-04T07:59:35.873Z,1.77
2023-03-04T08:02:03.008Z,1.75
2023-03-04T08:04:30.026Z,1.88
2023-03-04T08:06:57.406Z,1.52
2023-03-04T08:09:24.725Z,1.85
2023-03-04T08:11:51.782Z,1.45
2023-03-04T08:14:18.751Z,1.55
2023-03-04T08:16:45.906Z,1.92
2023-03-04T08:19:12.936Z,2.33
2023-03-04T08:21:39.995Z,1.40
2023-03-04T08:24:10.013Z,1.90
2023-03-04T08:26:43.993Z,1.42
2023-03-04T08:29:15.035Z,2.10
2023-03-04T08:31:42.463Z,1.52
2023-03-04T08:34:10.730Z,1.98
2023-03-04T08:36:37.886Z,1.90
2023-03-04T08:39:06.265Z,2.00
2023-03-04T08:41:33.477Z,2.00
2023-03-04T08:44:01.545Z,1.75
2023-03-04T08:46:28.911Z,2.13
2023-03-04T08:48:56.161Z,2.05
2023-03-04T08:51:23.688Z,1.90
2023-03-04T08:53:50.771Z,1.83
2023-03-04T08:56:17.989Z,2.55
2023-03-04T08:58:45.225Z,2.08
2023-03-04T09:01:14.673Z,1.92
2023-03-04T09:03:42.914Z,2.22
2023-03-04T09:06:12.326Z,1.60
2023-03-04T09:08:39.293Z,1.95
2023-03-04T09:11:07.107Z,2.15
2023-03-04T09:13:34.765Z,2.22
2023-03-04T09:16:02.756Z,2.45
2023-03-04T09:18:29.980Z,1.90
2023-03-04T09:20:57.029Z,1.50
2023-03-04T09:23:24.075Z,2.28
2023-03-04T09:25:51.533Z,1.92
2023-03-04T09:28:19.300Z,1.80
2023-03-04T09:30:46.892Z,1.75
2023-03-04T09:33:14.189Z,2.28
2023-03-04T09:35:41.673Z,1.90
2023-03-04T09:38:09.201Z,1.75
2023-03-04T09:40:48.605Z,2.15
2023-03-04T09:43:22.084Z,1.63
2023-03-04T09:45:53.945Z,1.38
2023-03-04T09:48:27.478Z,1.60
2023-03-04T09:51:05.605Z,2.58
2023-03-04T09:53:47.744Z,1.33
2023-03-04T09:56:15.107Z,1.38
2023-03-04T09:59:03.005Z,1.20
2023-03-04T10:01:39.384Z,1.88
2023-03-04T10:04:25.273Z,1.00
2023-03-04T10:09:53.946Z,1.58
2023-03-04T10:12:26.028Z,1.17
2023-03-04T10:15:12.804Z,1.23
2023-03-04T10:17:47.164Z,1.60
2023-03-04T10:20:27.315Z,0.90
2023-03-04T10:23:02.501Z,1.20
2023-03-04T10:25:32.295Z,1.27
2023-03-04T10:28:30.571Z,0.95
2023-03-04T10:31:06.542Z,1.17
2023-03-04T10:33:35.953Z,1.45
2023-03-04T10:36:12.913Z,1.30
2023-03-04T10:38:42.795Z,1.10
2023-03-04T10:41:19.226Z,1.23
2023-03-04T10:43:59.939Z,1.30
2023-03-04T10:46:27.388Z,0.68
2023-03-04T10:48:55.088Z,1.05
2023-03-04T10:51:25.083Z,0.93
2023-03-04T10:54:09.040Z,1.10
2023-03-04T10:56:36.465Z,1.17
2023-03-04T10:59:46.310Z,1.75
2023-03-04T11:02:33.688Z,1.25
2023-03-04T11:05:15.939Z,1.17
2023-03-04T11:07:57.086Z,1.13
2023-03-04T11:10:36.705Z,0.93
2023-03-04T11:13:24.378Z,0.82
2023-03-04T11:16:03.566Z,1.10
2023-03-04T11:18:53.819Z,0.77
2023-03-04T11:21:23.740Z,0.85
2023-03-04T11:23:58.329Z,1.00
2023-03-04T11:26:42.803Z,0.70
2023-03-04T11:29:13.012Z,0.90
2023-03-04T11:31:42.758Z,1.13
2023-03-04T11:34:27.282Z,1.13
2023-03-04T11:37:08.026Z,1.35
2023-03-04T11:39:40.468Z,0.98
2023-03-04T11:42:41.910Z,1.00
2023-03-04T11:45:29.180Z,1.17
2023-03-04T11:48:17.484Z,1.65
2023-03-04T11:50:58.567Z,0.82
2023-03-04T11:53:44.291Z,0.90
2023-03-04T11:56:17.733Z,0.75
2023-03-04T11:58:58.782Z,1.20
2023-03-04T12:01:40.204Z,0.73
2023-03-04T12:04:27.712Z,0.75
2023-03-04T12:07:31.413Z,0.90
2023-03-04T12:10:04.681Z,0.80
2023-03-04T12:13:09.628Z,0.57
2023-03-04T12:15:55.514Z,1.65
2023-03-04T12:18:31.059Z,0.88
2023-03-04T12:23:49.984Z,0.90
2023-03-04T12:29:03.328Z,0.70
2023-03-04T12:31:41.928Z,1.10
2023-03-04T12:34:24.079Z,0.57
2023-03-04T12:37:20.668Z,0.55
2023-03-04T12:40:30.428Z,0.90
2023-03-04T12:43:03.236Z,0.80
2023-03-04T12:45:55.485Z,0.60
2023-03-04T12:48:41.144Z,0.85
2023-03-04T12:51:32.858Z,0.68
2023-03-04T12:54:26.275Z,0.70
2023-03-04T12:57:12.537Z,1.05
2023-03-04T12:59:50.361Z,0.90
2023-03-04T13:02:39.470Z,1.20
2023-03-04T13:05:27.700Z,1.00
2023-03-04T13:08:13.608Z,1.25
2023-03-04T13:13:41.394Z,0.68
2023-03-04T13:16:14.716Z,1.05
2023-03-04T13:18:42.040Z,1.58
2023-03-04T13:21:12.063Z,1.58
2023-03-04T13:23:39.849Z,1.65
2023-03-04T13:26:30.319Z,1.50
2023-03-04T13:29:16.089Z,1.00
2023-03-04T13:34:47.937Z,1.27
2023-03-04T13:37:33.510Z,1.00
2023-03-04T13:40:27.557Z,1.17
2023-03-04T13:42:54.994Z,0.70
2023-03-04T13:45:37.587Z,1.30
2023-03-04T13:48:21.676Z,1.00
2023-03-04T13:50:49.942Z,1.55
2023-03-04T13:53:31.224Z,1.30
2023-03-04T13:56:05.009Z,1.20
2023-03-04T13:58:32.368Z,0.85
2023-03-04T14:00:59.408Z,1.20
2023-03-04T14:03:30.134Z,1.20
2023-03-04T14:06:21.466Z,1.30
2023-03-04T14:08:50.491Z,1.40
2023-03-04T14:11:33.219Z,1.40
2023-03-04T14:14:04.641Z,1.70
2023-03-04T14:16:37.051Z,1.33
2023-03-04T14:19:09.676Z,1.48
2023-03-04T14:21:37.171Z,1.60
2023-03-04T14:24:08.601Z,1.27
2023-03-04T14:26:35.737Z,1.67
2023-03-04T14:29:04.090Z,1.40
2023-03-04T14:31:36.017Z,1.67
2023-03-04T14:34:04.841Z,1.83
2023-03-04T14:36:34.773Z,1.50
2023-03-04T14:39:07.402Z,1.27
2023-03-04T14:41:38.044Z,1.48
2023-03-04T14:44:05.396Z,1.15
2023-03-04T14:46:41.588Z,1.42
2023-03-04T14:49:13.727Z,1.55
2023-03-04T14:51:43.015Z,1.08
2023-03-04T14:54:30.057Z,0.68
2023-03-04T14:56:58.304Z,0.90
2023-03-04T14:59:31.211Z,1.45
2023-03-04T15:02:35.823Z,1.40
2023-03-04T15:05:16.908Z,1.52
2023-03-04T15:07:49.776Z,1.33
2023-03-04T15:10:27.958Z,1.33
2023-03-04T15:12:58.700Z,1.70
2023-03-04T15:15:33.458Z,1.30
2023-03-04T15:18:24.125Z,1.10
2023-03-04T15:20:59.735Z,1.30
2023-03-04T15:23:28.905Z,1.77
2023-03-04T15:26:02.084Z,1.10
2023-03-04T15:28:38.258Z,1.63
2023-03-04T15:31:15.600Z,1.30
2023-03-04T15:33:42.821Z,1.30
2023-03-04T15:36:15.013Z,1.90
2023-03-04T15:38:47.825Z,3.50
2023-03-04T15:41:23.278Z,2.03
2023-03-04T15:43:51.204Z,1.90
2023-03-04T15:46:19.644Z,2.42
2023-03-04T15:48:47.500Z,1.88
2023-03-04T15:51:18.213Z,1.38
2023-03-04T15:53:48.485Z,1.60
2023-03-04T15:56:19.660Z,1.63
2023-03-04T15:58:58.968Z,2.05
2023-03-04T16:01:26.533Z,1.45
2023-03-04T16:03:54.063Z,1.67
2023-03-04T16:06:24.684Z,1.30
2023-03-04T16:08:52.795Z,1.92
2023-03-04T16:11:25.830Z,1.33
2023-03-04T16:13:53.207Z,1.65
2023-03-04T16:16:20.588Z,1.40
2023-03-04T16:18:48.329Z,1.90
2023-03-04T16:21:18.891Z,1.80
2023-03-04T16:23:48.583Z,1.20
2023-03-04T16:26:18.650Z,1.40
2023-03-04T16:28:45.759Z,1.15
2023-03-04T16:31:15.008Z,1.40
2023-03-04T16:33:42.687Z,1.05
2023-03-04T16:36:39.213Z,1.42
2023-03-04T16:39:13.475Z,0.90
2023-03-04T16:41:40.634Z,1.65
2023-03-04T16:44:13.827Z,2.17
2023-03-04T16:46:41.442Z,2.47
2023-03-04T16:49:08.628Z,2.45
2023-03-04T16:51:43.926Z,6.25
2023-03-04T16:54:30.399Z,2.08
2023-03-04T16:56:59.009Z,1.10
2023-03-04T16:59:26.840Z,1.70
2023-03-04T17:01:54.684Z,1.40
2023-03-04T17:04:22.610Z,1.20
2023-03-04T17:06:49.976Z,1.55
2023-03-04T17:09:16.879Z,2.08
2023-03-04T17:11:44.081Z,1.95
2023-03-04T17:14:11.006Z,2.15
2023-03-04T17:16:38.065Z,1.90
2023-03-04T17:19:05.339Z,1.80
2023-03-04T17:21:32.400Z,2.63
2023-03-04T17:24:00.252Z,3.35
2023-03-04T17:26:27.419Z,2.65
2023-03-04T17:28:54.427Z,2.13
2023-03-04T17:31:21.839Z,2.30
2023-03-04T17:33:49.321Z,2.90
2023-03-04T17:36:19.026Z,2.35
2023-03-04T17:38:46.240Z,3.70
2023-03-04T17:41:17.615Z,2.85
2023-03-04T17:43:46.849Z,2.53
2023-03-04T17:46:15.561Z,2.35
2023-03-04T17:48:42.835Z,2.28
2023-03-04T17:51:11.011Z,1.90
2023-03-04T17:53:39.115Z,2.60
2023-03-04T17:56:08.358Z,3.33
2023-03-04T17:58:37.214Z,2.03
2023-03-04T18:01:18.057Z,1.65
2023-03-04T18:03:45.271Z,2.33
2023-03-04T18:06:12.579Z,2.63
2023-03-04T18:08:39.568Z,1.83
2023-03-04T18:11:06.786Z,2.38
2023-03-04T18:13:33.732Z,2.65
2023-03-04T18:16:00.777Z,2.33
2023-03-04T18:18:27.926Z,2.70
2023-03-04T18:20:59.421Z,2.00
2023-03-04T18:23:28.806Z,1.58
2023-03-04T18:25:56.863Z,1.50
2023-03-04T18:28:24.267Z,1.80
2023-03-04T18:30:52.329Z,2.10
2023-03-04T18:33:20.985Z,1.30
2023-03-04T18:35:47.979Z,2.22
2023-03-04T18:38:15.267Z,1.65
2023-03-04T18:40:44.535Z,1.83
2023-03-04T18:43:11.789Z,1.55
2023-03-04T18:45:39.052Z,1.55
2023-03-04T18:48:06.479Z,1.90
2023-03-04T18:50:33.668Z,2.05
2023-03-04T18:53:00.948Z,1.67
2023-03-04T18:55:28.597Z,1.70
2023-03-04T18:57:58.273Z,1.80
2023-03-04T19:00:25.528Z,1.67
2023-03-04T19:03:06.488Z,1.77
2023-03-04T19:05:34.387Z,1.98
2023-03-04T19:08:01.710Z,2.80
2023-03-04T19:10:29.165Z,2.80
2023-03-04T19:12:57.642Z,2.42
2023-03-04T19:15:24.975Z,1.77
2023-03-04T19:17:52.064Z,2.58
2023-03-04T19:20:19.668Z,2.13
2023-03-04T19:22:46.688Z,1.30
2023-03-04T19:25:13.966Z,1.40
2023-03-04T19:27:41.303Z,1.95
2023-03-04T19:30:10.021Z,3.95
2023-03-04T19:32:37.284Z,3.35
2023-03-04T19:35:04.425Z,2.38
2023-03-04T19:37:31.577Z,2.03
2023-03-04T19:39:58.889Z,2.63
2023-03-04T19:42:26.235Z,2.28
2023-03-04T19:44:53.527Z,2.25
2023-03-04T19:47:20.503Z,2.30
2023-03-04T19:49:47.655Z,1.90
2023-03-04T19:52:14.676Z,1.52
2023-03-04T19:54:41.771Z,2.47
2023-03-04T19:57:08.778Z,1.70
2023-03-04T19:59:36.436Z,1.77
2023-03-04T20:02:03.521Z,2.05
2023-03-04T20:04:30.628Z,2.38
2023-03-04T20:06:57.969Z,2.08
2023-03-04T20:09:25.072Z,2.90
2023-03-04T20:11:58.200Z,2.70
2023-03-04T20:14:26.977Z,2.67
2023-03-04T20:16:54.051Z,2.17
2023-03-04T20:19:20.980Z,2.40
2023-03-04T20:21:48.152Z,2.22
2023-03-04T20:24:15.322Z,2.25
2023-03-04T20:26:42.731Z,2.85
2023-03-04T20:29:09.828Z,2.75
2023-03-04T20:31:38.971Z,2.20
2023-03-04T20:34:07.486Z,1.73
2023-03-04T20:36:34.896Z,1.88
2023-03-04T20:39:05.252Z,1.95
2023-03-04T20:41:35.325Z,2.17
2023-03-04T20:44:02.969Z,1.52
2023-03-04T20:46:43.253Z,3.38
2023-03-04T20:49:12.239Z,1.90
2023-03-04T20:51:39.815Z,2.00
2023-03-04T20:54:07.805Z,2.30
2023-03-04T20:56:35.829Z,2.50
2023-03-04T20:59:04.915Z,2.53
2023-03-04T21:01:32.618Z,2.50
2023-03-04T21:04:00.685Z,2.70
2023-03-04T21:06:29.411Z,2.10
2023-03-04T21:08:59.732Z,2.10
2023-03-04T21:11:26.811Z,2.05
2023-03-04T21:13:56.760Z,2.40
2023-03-04T21:16:26.988Z,2.65
2023-03-04T21:18:54.089Z,2.13
2023-03-04T21:21:24.257Z,1.98
2023-03-04T21:23:53.422Z,1.80
2023-03-04T21:26:22.128Z,2.25
2023-03-04T21:28:51.007Z,1.65
2023-03-04T21:31:31.074Z,1.30
2023-03-04T21:34:00.964Z,2.03
2023-03-04T21:36:28.147Z,1.60
2023-03-04T21:38:55.239Z,1.30
2023-03-04T21:41:24.151Z,1.30
2023-03-04T21:43:51.787Z,1.10
2023-03-04T21:46:19.427Z,1.30
2023-03-04T21:48:48.260Z,1.30
2023-03-04T21:51:16.882Z,1.35
2023-03-04T21:53:44.466Z,1.48
2023-03-04T21:56:12.870Z,1.10
2023-03-04T21:58:43.117Z,1.17
2023-03-04T22:01:11.360Z,1.40
2023-03-04T22:03:38.413Z,1.30
2023-03-04T22:06:07.935Z,1.77
2023-03-04T22:08:35.610Z,1.70
2023-03-04T22:11:04.829Z,1.05
2023-03-04T22:13:32.390Z,1.60
2023-03-04T22:16:00.255Z,1.40
2023-03-04T22:18:28.182Z,1.42
2023-03-04T22:21:04.847Z,1.20
2023-03-04T22:23:33.791Z,1.35
2023-03-04T22:26:06.148Z,1.23
2023-03-04T22:28:33.949Z,1.23
2023-03-04T22:31:01.987Z,1.05
2023-03-04T22:33:29.577Z,1.33
2023-03-04T22:35:56.541Z,1.02
2023-03-04T22:38:23.812Z,0.93
2023-03-04T22:40:50.913Z,1.52
2023-03-04T22:43:18.008Z,1.52
2023-03-04T22:45:45.322Z,1.77
2023-03-04T22:48:14.527Z,1.85
2023-03-04T22:50:42.163Z,1.45
2023-03-04T22:53:09.494Z,1.55
2023-03-04T22:55:36.781Z,1.00
2023-03-04T22:58:04.642Z,1.00
2023-03-04T23:00:32.566Z,0.93
2023-03-04T23:03:00.003Z,1.42
2023-03-04T23:05:27.177Z,1.20
2023-03-04T23:07:54.254Z,1.20
2023-03-04T23:10:24.293Z,1.35
2023-03-04T23:12:51.913Z,1.35
2023-03-04T23:15:20.357Z,1.40
2023-03-04T23:17:48.280Z,1.30
2023-03-04T23:20:20.937Z,1.70
2023-03-04T23:22:49.397Z,1.90
2023-03-04T23:25:16.596Z,1.70
2023-03-04T23:27:44.899Z,2.08
2023-03-04T23:30:17.241Z,1.67
2023-03-04T23:32:45.176Z,1.60
2023-03-04T23:35:12.364Z,1.15
2023-03-04T23:37:39.838Z,0.90
2023-03-04T23:40:07.617Z,1.13
2023-03-04T23:42:34.698Z,1.60
2023-03-04T23:45:01.947Z,1.52
2023-03-04T23:47:29.609Z,1.65
2023-03-04T23:49:56.896Z,1.00
2023-03-04T23:52:24.232Z,1.08
2023-03-04T23:54:51.114Z,1.27
2023-03-04T23:57:18.571Z,1.48
2023-03-04T23:59:45.831Z,1.73
